sensor_id;sensor_type;location;lat;lon;timestamp;pressure;altitude;pressure_sealevel;temperature;humidity
60725;BME280;59881;36.722;-4.462;2023-05-22T08:10:26;100265.56;;;14.38;94.77
60725;BME280;59881;36.722;-4.462;2023-05-22T08:12:51;100125.50;;;13.34;93.39
60725;BME280;59881;36.722;-4.462;2023-05-22T08:15:17;99978.03;;;12.46;93.00
60725;BME280;59881;36.722;-4.462;2023-05-22T08:17:42;100188.63;;;13.79;93.21
60725;BME280;59881;36.722;-4.462;2023-05-22T08:20:08;100459.06;;;15.48;93.38
60725;BME280;59881;36.722;-4.462;2023-05-22T08:22:34;100246.50;;;13.94;93.01
60725;BME280;59881;36.722;-4.462;2023-05-22T08:24:59;100206.28;;;14.19;92.66
60725;BME280;59881;36.722;-4.462;2023-05-22T08:27:25;100447.47;;;15.78;92.27
60725;BME280;59881;36.722;-4.462;2023-05-22T08:29:51;100310.84;;;15.04;91.42
60725;BME280;59881;36.722;-4.462;2023-05-22T08:32:17;100453.84;;;16.05;90.70
60725;BME280;59881;36.722;-4.462;2023-05-22T08:34:42;100356.19;;;15.60;90.12
60725;BME280;59881;36.722;-4.462;2023-05-22T08:37:10;100421.25;;;16.12;89.17
60725;BME280;59881;36.722;-4.462;2023-05-22T08:39:36;100370.03;;;15.63;87.88
60725;BME280;59881;36.722;-4.462;2023-05-22T08:42:02;100059.59;;;14.01;87.05
60725;BME280;59881;36.722;-4.462;2023-05-22T08:44:28;100457.84;;;16.66;86.32
60725;BME280;59881;36.722;-4.462;2023-05-22T08:46:53;100184.47;;;15.13;85.06
60725;BME280;59881;36.722;-4.462;2023-05-22T08:49:21;100448.84;;;17.04;83.98
60725;BME280;59881;36.722;-4.462;2023-05-22T08:51:53;100437.47;;;17.30;82.36
60725;BME280;59881;36.722;-4.462;2023-05-22T08:54:20;100432.59;;;17.43;80.36
60725;BME280;59881;36.722;-4.462;2023-05-22T08:56:49;100437.56;;;17.64;79.49
60725;BME280;59881;36.722;-4.462;2023-05-22T08:59:17;100403.03;;;17.72;77.98
60725;BME280;59881;36.722;-4.462;2023-05-22T09:01:44;100431.78;;;18.13;77.17
60725;BME280;59881;36.722;-4.462;2023-05-22T09:04:10;100264.56;;;17.28;75.53
60725;BME280;59881;36.722;-4.462;2023-05-22T09:06:36;100431.34;;;18.52;74.86
60725;BME280;59881;36.722;-4.462;2023-05-22T09:09:03;100239.97;;;17.61;73.82
60725;BME280;59881;36.722;-4.462;2023-05-22T09:11:28;100420.56;;;19.04;73.10
60725;BME280;59881;36.722;-4.462;2023-05-22T09:14:07;100198.63;;;17.91;72.09
60725;BME280;59881;36.722;-4.462;2023-05-22T09:16:43;100409.22;;;19.43;71.23
60725;BME280;59881;36.722;-4.462;2023-05-22T09:19:08;100395.53;;;19.30;70.71
60725;BME280;59881;36.722;-4.462;2023-05-22T09:21:35;100102.63;;;17.66;69.40
60725;BME280;59881;36.722;-4.462;2023-05-22T09:24:01;100404.38;;;19.96;68.58
60725;BME280;59881;36.722;-4.462;2023-05-22T09:26:27;100082.78;;;18.11;66.83
60725;BME280;59881;36.722;-4.462;2023-05-22T09:28:58;100198.13;;;18.63;66.51
60725;BME280;59881;36.722;-4.462;2023-05-22T09:31:24;100404.97;;;20.22;66.34
60725;BME280;59881;36.722;-4.462;2023-05-22T09:33:49;100306.53;;;19.62;66.00
60725;BME280;59881;36.722;-4.462;2023-05-22T09:36:15;100345.41;;;19.81;65.79
60725;BME280;59881;36.722;-4.462;2023-05-22T09:38:41;100341.41;;;19.85;65.81
60725;BME280;59881;36.722;-4.462;2023-05-22T09:41:07;100402.75;;;20.34;65.82
60725;BME280;59881;36.722;-4.462;2023-05-22T09:43:32;100432.16;;;20.42;65.26
60725;BME280;59881;36.722;-4.462;2023-05-22T09:46:01;100204.41;;;19.27;64.53
60725;BME280;59881;36.722;-4.462;2023-05-22T09:48:33;100262.59;;;20.12;63.93
60725;BME280;59881;36.722;-4.462;2023-05-22T09:51:01;100331.59;;;20.87;62.55
60725;BME280;59881;36.722;-4.462;2023-05-22T09:53:28;100444.97;;;21.03;61.61
60725;BME280;59881;36.722;-4.462;2023-05-22T09:55:58;100397.97;;;20.69;61.73
60725;BME280;59881;36.722;-4.462;2023-05-22T09:58:29;100412.75;;;20.57;62.14
60725;BME280;59881;36.722;-4.462;2023-05-22T10:00:55;100081.78;;;18.29;62.36
60725;BME280;59881;36.722;-4.462;2023-05-22T10:03:23;100390.03;;;19.89;63.12
60725;BME280;59881;36.722;-4.462;2023-05-22T10:05:52;99888.72;;;16.66;63.56
60725;BME280;59881;36.722;-4.462;2023-05-22T10:08:26;100397.19;;;19.63;64.35
60725;BME280;59881;36.722;-4.462;2023-05-22T10:10:52;100389.19;;;19.55;65.03
60725;BME280;59881;36.722;-4.462;2023-05-22T10:13:19;100405.88;;;19.65;65.28
60725;BME280;59881;36.722;-4.462;2023-05-22T10:15:49;100403.72;;;19.53;65.18
60725;BME280;59881;36.722;-4.462;2023-05-22T10:18:15;100505.56;;;19.41;65.28
60725;BME280;59881;36.722;-4.462;2023-05-22T10:20:42;100418.06;;;19.27;64.91
60725;BME280;59881;36.722;-4.462;2023-05-22T10:23:08;100491.66;;;19.21;65.32
60725;BME280;59881;36.722;-4.462;2023-05-22T10:25:37;100491.66;;;19.21;65.58
60725;BME280;59881;36.722;-4.462;2023-05-22T10:28:03;100409.72;;;19.22;65.82
60725;BME280;59881;36.722;-4.462;2023-05-22T10:33:21;100378.13;;;19.01;65.68
60725;BME280;59881;36.722;-4.462;2023-05-22T10:36:12;100358.59;;;18.92;65.57
60725;BME280;59881;36.722;-4.462;2023-05-22T10:41:42;100404.88;;;19.26;65.27
60725;BME280;59881;36.722;-4.462;2023-05-22T10:44:07;100383.69;;;19.24;65.25
60725;BME280;59881;36.722;-4.462;2023-05-22T10:46:34;100418.56;;;19.39;65.14
60725;BME280;59881;36.722;-4.462;2023-05-22T10:49:00;100416.75;;;19.31;65.30
60725;BME280;59881;36.722;-4.462;2023-05-22T10:51:26;100065.28;;;16.99;64.96
60725;BME280;59881;36.722;-4.462;2023-05-22T10:53:57;100420.53;;;19.12;66.15
60725;BME280;59881;36.722;-4.462;2023-05-22T10:56:23;100421.88;;;19.16;66.54
60725;BME280;59881;36.722;-4.462;2023-05-22T10:58:58;100420.03;;;19.17;66.78
60725;BME280;59881;36.722;-4.462;2023-05-22T11:01:28;100422.22;;;19.21;67.02
60725;BME280;59881;36.722;-4.462;2023-05-22T11:11:40;100435.91;;;19.35;66.13
60725;BME280;59881;36.722;-4.462;2023-05-22T11:14:06;100214.00;;;17.97;65.94
60725;BME280;59881;36.722;-4.462;2023-05-22T11:16:32;100134.19;;;17.45;65.71
60725;BME280;59881;36.722;-4.462;2023-05-22T11:19:08;100442.94;;;19.36;65.92
60725;BME280;59881;36.722;-4.462;2023-05-22T11:21:45;100422.41;;;19.20;65.56
60725;BME280;59881;36.722;-4.462;2023-05-22T11:24:15;100447.13;;;19.38;65.63
60725;BME280;59881;36.722;-4.462;2023-05-22T11:26:42;100449.63;;;19.40;65.67
60725;BME280;59881;36.722;-4.462;2023-05-22T11:29:09;100241.34;;;18.07;65.68
60725;BME280;59881;36.722;-4.462;2023-05-22T11:31:35;100449.28;;;19.43;65.91
60725;BME280;59881;36.722;-4.462;2023-05-22T11:34:03;100262.56;;;18.25;65.56
60725;BME280;59881;36.722;-4.462;2023-05-22T11:36:29;100429.94;;;19.33;66.20
60725;BME280;59881;36.722;-4.462;2023-05-22T11:38:57;100454.50;;;19.53;66.45
60725;BME280;59881;36.722;-4.462;2023-05-22T11:41:23;100420.41;;;19.38;66.16
60725;BME280;59881;36.722;-4.462;2023-05-22T11:43:49;100444.81;;;19.60;65.88
60725;BME280;59881;36.722;-4.462;2023-05-22T11:46:15;100467.19;;;19.51;65.82
60725;BME280;59881;36.722;-4.462;2023-05-22T11:48:41;100385.50;;;19.07;65.69
60725;BME280;59881;36.722;-4.462;2023-05-22T11:51:07;100439.28;;;19.61;66.19
60725;BME280;59881;36.722;-4.462;2023-05-22T11:53:34;100479.03;;;19.56;66.11
60725;BME280;59881;36.722;-4.462;2023-05-22T11:56:01;100172.84;;;17.99;65.75
60725;BME280;59881;36.722;-4.462;2023-05-22T11:58:27;100381.00;;;19.32;65.27
60725;BME280;59881;36.722;-4.462;2023-05-22T12:00:58;100359.16;;;19.20;65.15
60725;BME280;59881;36.722;-4.462;2023-05-22T12:03:24;100443.84;;;19.77;64.70
60725;BME280;59881;36.722;-4.462;2023-05-22T12:05:50;100150.38;;;17.94;64.76
60725;BME280;59881;36.722;-4.462;2023-05-22T12:08:15;100451.69;;;19.71;65.30
60725;BME280;59881;36.722;-4.462;2023-05-22T12:10:52;100506.13;;;19.70;65.13
60725;BME280;59881;36.722;-4.462;2023-05-22T12:13:28;100425.44;;;19.50;65.55
60725;BME280;59881;36.722;-4.462;2023-05-22T12:15:56;100438.78;;;19.58;65.95
60725;BME280;59881;36.722;-4.462;2023-05-22T12:18:22;100186.31;;;17.90;65.63
60725;BME280;59881;36.722;-4.462;2023-05-22T12:20:52;100452.13;;;19.50;66.01
60725;BME280;59881;36.722;-4.462;2023-05-22T12:23:26;100453.81;;;19.51;65.75
60725;BME280;59881;36.722;-4.462;2023-05-22T12:26:00;100197.47;;;17.85;65.98
60725;BME280;59881;36.722;-4.462;2023-05-22T12:28:26;100461.97;;;19.41;65.83
60725;BME280;59881;36.722;-4.462;2023-05-22T12:30:53;100461.47;;;19.29;65.56
60725;BME280;59881;36.722;-4.462;2023-05-22T12:33:24;100460.28;;;19.15;65.72
60725;BME280;59881;36.722;-4.462;2023-05-22T12:35:49;100468.41;;;19.06;65.41
60725;BME280;59881;36.722;-4.462;2023-05-22T12:38:21;100497.69;;;18.81;65.53
60725;BME280;59881;36.722;-4.462;2023-05-22T12:40:47;100420.97;;;18.40;65.49
60725;BME280;59881;36.722;-4.462;2023-05-22T12:43:13;100496.28;;;18.69;66.27
60725;BME280;59881;36.722;-4.462;2023-05-22T12:45:39;100444.34;;;18.47;65.46
60725;BME280;59881;36.722;-4.462;2023-05-22T12:48:08;100417.16;;;18.17;64.74
60725;BME280;59881;36.722;-4.462;2023-05-22T12:50:34;100451.31;;;18.48;64.77
60725;BME280;59881;36.722;-4.462;2023-05-22T12:53:03;100444.97;;;18.40;65.31
60725;BME280;59881;36.722;-4.462;2023-05-22T12:55:28;100176.25;;;16.81;64.83
60725;BME280;59881;36.722;-4.462;2023-05-22T12:57:54;100204.06;;;17.12;64.74
60725;BME280;59881;36.722;-4.462;2023-05-22T13:00:21;100320.59;;;17.97;64.98
60725;BME280;59881;36.722;-4.462;2023-05-22T13:02:47;99974.03;;;15.94;64.30
60725;BME280;59881;36.722;-4.462;2023-05-22T13:05:13;100174.84;;;17.21;63.41
60725;BME280;59881;36.722;-4.462;2023-05-22T13:07:38;100415.75;;;18.73;63.32
60725;BME280;59881;36.722;-4.462;2023-05-22T13:10:04;100430.19;;;18.89;63.45
60725;BME280;59881;36.722;-4.462;2023-05-22T13:12:30;100336.91;;;17.94;63.72
60725;BME280;59881;36.722;-4.462;2023-05-22T13:14:59;100274.94;;;17.66;63.71
60725;BME280;59881;36.722;-4.462;2023-05-22T13:17:25;100201.81;;;17.00;63.68
60725;BME280;59881;36.722;-4.462;2023-05-22T13:19:52;100160.28;;;16.63;63.87
60725;BME280;59881;36.722;-4.462;2023-05-22T13:22:18;100437.50;;;17.92;64.78
60725;BME280;59881;36.722;-4.462;2023-05-22T13:24:43;100229.88;;;16.58;65.11
60725;BME280;59881;36.722;-4.462;2023-05-22T13:27:09;100164.63;;;16.28;65.60
60725;BME280;59881;36.722;-4.462;2023-05-22T13:29:34;100201.72;;;16.02;66.66
60725;BME280;59881;36.722;-4.462;2023-05-22T13:32:00;100101.50;;;15.76;66.79
60725;BME280;59881;36.722;-4.462;2023-05-22T13:34:27;100478.66;;;17.79;67.05
60725;BME280;59881;36.722;-4.462;2023-05-22T13:36:53;100444.81;;;17.72;66.91
60725;BME280;59881;36.722;-4.462;2023-05-22T13:39:19;100162.44;;;16.05;67.62
60725;BME280;59881;36.722;-4.462;2023-05-22T13:41:44;100289.56;;;16.91;67.82
60725;BME280;59881;36.722;-4.462;2023-05-22T13:44:10;100224.25;;;16.25;67.67
60725;BME280;59881;36.722;-4.462;2023-05-22T13:46:36;100193.47;;;16.23;68.23
60725;BME280;59881;36.722;-4.462;2023-05-22T13:49:01;100274.56;;;16.72;68.85
60725;BME280;59881;36.722;-4.462;2023-05-22T13:51:27;100277.16;;;16.82;68.91
60725;BME280;59881;36.722;-4.462;2023-05-22T13:53:52;100411.41;;;17.59;69.07
60725;BME280;59881;36.722;-4.462;2023-05-22T13:56:18;100129.75;;;15.95;69.04
60725;BME280;59881;36.722;-4.462;2023-05-22T13:58:43;100457.78;;;17.85;68.95
60725;BME280;59881;36.722;-4.462;2023-05-22T14:01:09;100373.53;;;17.48;68.55
60725;BME280;59881;36.722;-4.462;2023-05-22T14:03:34;100450.66;;;17.75;68.74
60725;BME280;59881;36.722;-4.462;2023-05-22T14:06:00;100429.53;;;17.56;69.29
60725;BME280;59881;36.722;-4.462;2023-05-22T14:08:26;100451.59;;;17.66;69.78
60725;BME280;59881;36.722;-4.462;2023-05-22T14:10:52;100429.59;;;17.46;69.84
60725;BME280;59881;36.722;-4.462;2023-05-22T14:13:17;100453.06;;;17.61;70.30
60725;BME280;59881;36.722;-4.462;2023-05-22T14:15:43;100493.28;;;17.75;70.63
60725;BME280;59881;36.722;-4.462;2023-05-22T14:18:12;100453.31;;;17.75;70.21
60725;BME280;59881;36.722;-4.462;2023-05-22T14:20:38;100449.69;;;17.58;69.83
60725;BME280;59881;36.722;-4.462;2023-05-22T14:23:03;100412.19;;;17.52;70.28
60725;BME280;59881;36.722;-4.462;2023-05-22T14:25:29;100416.81;;;17.68;70.72
60725;BME280;59881;36.722;-4.462;2023-05-22T14:27:54;100447.34;;;17.91;70.33
60725;BME280;59881;36.722;-4.462;2023-05-22T14:30:20;100391.63;;;17.62;70.17
60725;BME280;59881;36.722;-4.462;2023-05-22T14:32:45;100440.66;;;17.95;70.25
60725;BME280;59881;36.722;-4.462;2023-05-22T14:35:11;100358.53;;;17.47;70.48
60725;BME280;59881;36.722;-4.462;2023-05-22T14:37:37;100480.22;;;18.00;70.21
60725;BME280;59881;36.722;-4.462;2023-05-22T14:40:03;100402.13;;;17.64;70.26
60725;BME280;59881;36.722;-4.462;2023-05-22T14:42:29;100384.16;;;17.66;70.18
60725;BME280;59881;36.722;-4.462;2023-05-22T14:44:54;100428.03;;;17.97;70.22
60725;BME280;59881;36.722;-4.462;2023-05-22T14:47:20;100444.78;;;18.08;70.26
60725;BME280;59881;36.722;-4.462;2023-05-22T14:49:45;100414.88;;;17.96;69.91
60725;BME280;59881;36.722;-4.462;2023-05-22T14:52:11;100433.13;;;18.09;70.30
60725;BME280;59881;36.722;-4.462;2023-05-22T14:54:37;100195.69;;;16.63;69.74
60725;BME280;59881;36.722;-4.462;2023-05-22T14:57:03;100435.13;;;18.15;69.79
60725;BME280;59881;36.722;-4.462;2023-05-22T14:59:29;100172.38;;;16.57;69.49
60725;BME280;59881;36.722;-4.462;2023-05-22T15:01:54;100446.47;;;18.17;69.65
60725;BME280;59881;36.722;-4.462;2023-05-22T15:04:20;100451.81;;;18.17;69.38
60725;BME280;59881;36.722;-4.462;2023-05-22T15:06:46;100366.81;;;17.62;69.26
60725;BME280;59881;36.722;-4.462;2023-05-22T15:09:12;100447.53;;;18.24;68.75
60725;BME280;59881;36.722;-4.462;2023-05-22T15:11:37;100439.66;;;18.14;68.72
60725;BME280;59881;36.722;-4.462;2023-05-22T15:14:06;100447.69;;;18.23;68.56
60725;BME280;59881;36.722;-4.462;2023-05-22T15:16:32;100196.75;;;16.70;68.31
60725;BME280;59881;36.722;-4.462;2023-05-22T15:18:57;100428.31;;;18.12;68.60
60725;BME280;59881;36.722;-4.462;2023-05-22T15:21:23;100457.66;;;17.94;68.31
60725;BME280;59881;36.722;-4.462;2023-05-22T15:23:49;100411.53;;;17.94;68.62
60725;BME280;59881;36.722;-4.462;2023-05-22T15:26:15;100380.78;;;17.82;69.11
60725;BME280;59881;36.722;-4.462;2023-05-22T15:28:40;100450.94;;;18.34;68.82
60725;BME280;59881;36.722;-4.462;2023-05-22T15:31:06;100172.25;;;16.67;68.28
60725;BME280;59881;36.722;-4.462;2023-05-22T15:33:32;100069.66;;;15.94;68.46
60725;BME280;59881;36.722;-4.462;2023-05-22T15:35:58;100403.69;;;17.92;68.65
60725;BME280;59881;36.722;-4.462;2023-05-22T15:38:24;100448.72;;;18.04;69.13
60725;BME280;59881;36.722;-4.462;2023-05-22T15:40:49;100258.72;;;16.81;69.62
60725;BME280;59881;36.722;-4.462;2023-05-22T15:43:15;100427.22;;;17.79;70.24
60725;BME280;59881;36.722;-4.462;2023-05-22T15:45:45;100371.28;;;17.35;70.56
60725;BME280;59881;36.722;-4.462;2023-05-22T15:48:12;100445.78;;;17.71;71.13
60725;BME280;59881;36.722;-4.462;2023-05-22T15:50:38;100327.34;;;16.95;71.59
60725;BME280;59881;36.722;-4.462;2023-05-22T15:53:03;100441.03;;;17.56;71.92
60725;BME280;59881;36.722;-4.462;2023-05-22T15:55:30;100430.38;;;17.56;72.53
60725;BME280;59881;36.722;-4.462;2023-05-22T15:57:58;100439.41;;;17.64;73.03
60725;BME280;59881;36.722;-4.462;2023-05-22T16:00:26;100432.94;;;17.66;72.69
60725;BME280;59881;36.722;-4.462;2023-05-22T16:02:51;100307.78;;;16.86;72.82
60725;BME280;59881;36.722;-4.462;2023-05-22T16:05:17;100498.25;;;17.70;72.81
60725;BME280;59881;36.722;-4.462;2023-05-22T16:07:43;100206.72;;;16.32;72.63
60725;BME280;59881;36.722;-4.462;2023-05-22T16:10:09;100126.78;;;15.80;72.81
60725;BME280;59881;36.722;-4.462;2023-05-22T16:12:35;100465.22;;;17.63;72.76
60725;BME280;59881;36.722;-4.462;2023-05-22T16:15:01;100431.34;;;17.55;72.80
60725;BME280;59881;36.722;-4.462;2023-05-22T16:17:28;100367.72;;;17.08;73.21
60725;BME280;59881;36.722;-4.462;2023-05-22T16:19:54;100436.63;;;17.47;73.64
60725;BME280;59881;36.722;-4.462;2023-05-22T16:22:19;100200.88;;;15.83;73.70
60725;BME280;59881;36.722;-4.462;2023-05-22T16:24:45;99816.06;;;13.72;73.57
60725;BME280;59881;36.722;-4.462;2023-05-22T16:27:11;100164.97;;;15.69;74.01
60725;BME280;59881;36.722;-4.462;2023-05-22T16:29:36;100426.56;;;17.59;74.08
60725;BME280;59881;36.722;-4.462;2023-05-22T16:32:02;100426.63;;;17.67;73.97
60725;BME280;59881;36.722;-4.462;2023-05-22T16:34:28;100428.69;;;17.73;73.94
60725;BME280;59881;36.722;-4.462;2023-05-22T16:36:56;100422.56;;;17.81;73.90
60725;BME280;59881;36.722;-4.462;2023-05-22T16:39:21;99937.81;;;14.76;73.61
60725;BME280;59881;36.722;-4.462;2023-05-22T16:41:47;100414.41;;;18.01;73.71
60725;BME280;59881;36.722;-4.462;2023-05-22T16:44:12;100223.66;;;16.85;73.62
60725;BME280;59881;36.722;-4.462;2023-05-22T16:46:38;100453.66;;;18.16;73.37
60725;BME280;59881;36.722;-4.462;2023-05-22T16:49:03;100362.00;;;17.83;73.04
60725;BME280;59881;36.722;-4.462;2023-05-22T16:51:29;100172.13;;;16.68;72.63
60725;BME280;59881;36.722;-4.462;2023-05-22T16:53:55;100436.72;;;18.26;72.77
60725;BME280;59881;36.722;-4.462;2023-05-22T16:56:20;100153.81;;;16.65;72.62
60725;BME280;59881;36.722;-4.462;2023-05-22T16:58:46;100416.69;;;18.22;72.77
60725;BME280;59881;36.722;-4.462;2023-05-22T17:01:12;100468.41;;;18.29;72.81
60725;BME280;59881;36.722;-4.462;2023-05-22T17:03:37;99942.38;;;15.29;72.70
60725;BME280;59881;36.722;-4.462;2023-05-22T17:06:03;100421.38;;;18.28;72.75
60725;BME280;59881;36.722;-4.462;2023-05-22T17:08:29;100039.69;;;15.84;72.57
60725;BME280;59881;36.722;-4.462;2023-05-22T17:10:56;100416.69;;;18.22;73.08
60725;BME280;59881;36.722;-4.462;2023-05-22T17:13:22;100096.22;;;15.94;73.32
60725;BME280;59881;36.722;-4.462;2023-05-22T17:15:48;100331.22;;;17.63;73.83
60725;BME280;59881;36.722;-4.462;2023-05-22T17:18:17;100351.19;;;17.41;74.11
60725;BME280;59881;36.722;-4.462;2023-05-22T17:20:49;100236.03;;;16.94;74.49
60725;BME280;59881;36.722;-4.462;2023-05-22T17:23:16;100430.00;;;18.22;74.77
60725;BME280;59881;36.722;-4.462;2023-05-22T17:25:42;100421.03;;;18.23;74.76
60725;BME280;59881;36.722;-4.462;2023-05-22T17:28:11;100241.59;;;16.65;74.55
60725;BME280;59881;36.722;-4.462;2023-05-22T17:30:42;100182.97;;;16.75;74.80
60725;BME280;59881;36.722;-4.462;2023-05-22T17:33:09;100421.19;;;18.21;74.90
60725;BME280;59881;36.722;-4.462;2023-05-22T17:35:34;100135.91;;;16.49;74.71
60725;BME280;59881;36.722;-4.462;2023-05-22T17:38:00;100439.50;;;18.16;74.93
60725;BME280;59881;36.722;-4.462;2023-05-22T17:40:26;99928.19;;;15.20;74.74
60725;BME280;59881;36.722;-4.462;2023-05-22T17:42:51;100357.34;;;17.41;74.98
60725;BME280;59881;36.722;-4.462;2023-05-22T17:45:17;100434.25;;;18.06;75.14
60725;BME280;59881;36.722;-4.462;2023-05-22T17:47:43;100009.34;;;15.41;74.86
60725;BME280;59881;36.722;-4.462;2023-05-22T17:50:09;100466.69;;;17.93;75.61
60725;BME280;59881;36.722;-4.462;2023-05-22T17:52:34;100012.69;;;15.43;75.77
60725;BME280;59881;36.722;-4.462;2023-05-22T17:55:00;99705.19;;;13.31;76.03
60725;BME280;59881;36.722;-4.462;2023-05-22T17:57:26;100385.94;;;17.39;76.63
60725;BME280;59881;36.722;-4.462;2023-05-22T17:59:51;99981.56;;;15.17;76.77
60725;BME280;59881;36.722;-4.462;2023-05-22T18:02:17;99773.56;;;13.73;76.70
60725;BME280;59881;36.722;-4.462;2023-05-22T18:04:42;100414.69;;;17.71;77.67
60725;BME280;59881;36.722;-4.462;2023-05-22T18:07:08;100111.44;;;14.81;77.37
60725;BME280;59881;36.722;-4.462;2023-05-22T18:09:33;100177.38;;;16.06;77.49
60725;BME280;59881;36.722;-4.462;2023-05-22T18:11:59;100417.38;;;17.53;77.66
60725;BME280;59881;36.722;-4.462;2023-05-22T18:14:26;100206.69;;;15.87;78.17
60725;BME280;59881;36.722;-4.462;2023-05-22T18:16:51;100315.41;;;16.53;78.22
60725;BME280;59881;36.722;-4.462;2023-05-22T18:19:17;99972.38;;;14.46;78.12
60725;BME280;59881;36.722;-4.462;2023-05-22T18:21:43;100347.69;;;16.41;78.75
60725;BME280;59881;36.722;-4.462;2023-05-22T18:24:08;100379.41;;;16.80;79.06
60725;BME280;59881;36.722;-4.462;2023-05-22T18:26:34;100234.38;;;15.94;79.13
60725;BME280;59881;36.722;-4.462;2023-05-22T18:28:59;100429.91;;;17.07;79.68
60725;BME280;59881;36.722;-4.462;2023-05-22T18:31:25;100432.03;;;17.04;80.05
60725;BME280;59881;36.722;-4.462;2023-05-22T18:33:51;100360.47;;;16.55;80.27
60725;BME280;59881;36.722;-4.462;2023-05-22T18:36:16;100312.25;;;16.22;80.51
60725;BME280;59881;36.722;-4.462;2023-05-22T18:38:42;100381.44;;;16.58;80.78
60725;BME280;59881;36.722;-4.462;2023-05-22T18:41:08;100456.66;;;16.88;81.07
60725;BME280;59881;36.722;-4.462;2023-05-22T18:43:33;100270.75;;;15.84;81.27
60725;BME280;59881;36.722;-4.462;2023-05-22T18:45:58;100443.53;;;16.76;81.72
60725;BME280;59881;36.722;-4.462;2023-05-22T18:48:24;100389.53;;;16.39;82.15
60725;BME280;59881;36.722;-4.462;2023-05-22T18:50:51;100442.03;;;16.64;82.47
60725;BME280;59881;36.722;-4.462;2023-05-22T18:53:17;100266.78;;;15.50;82.88
60725;BME280;59881;36.722;-4.462;2023-05-22T18:55:43;99972.66;;;13.67;83.29
60725;BME280;59881;36.722;-4.462;2023-05-22T18:58:09;100416.97;;;16.39;84.39
60725;BME280;59881;36.722;-4.462;2023-05-22T19:00:36;100189.69;;;14.95;84.41
60725;BME280;59881;36.722;-4.462;2023-05-22T19:03:04;100126.81;;;14.58;84.80
60725;BME280;59881;36.722;-4.462;2023-05-22T19:05:30;100439.16;;;16.48;85.64
60725;BME280;59881;36.722;-4.462;2023-05-22T19:07:55;100448.41;;;16.44;85.81
60725;BME280;59881;36.722;-4.462;2023-05-22T19:10:21;100045.38;;;13.92;85.99
60725;BME280;59881;36.722;-4.462;2023-05-22T19:12:47;100388.16;;;15.97;86.73
60725;BME280;59881;36.722;-4.462;2023-05-22T19:15:12;100447.34;;;16.37;87.14
60725;BME280;59881;36.722;-4.462;2023-05-22T19:17:38;100458.94;;;16.35;87.53
60725;BME280;59881;36.722;-4.462;2023-05-22T19:20:04;100063.78;;;13.84;87.54
60725;BME280;59881;36.722;-4.462;2023-05-22T19:22:33;100455.75;;;16.32;88.07
60725;BME280;59881;36.722;-4.462;2023-05-22T19:24:58;100460.38;;;16.30;88.42
60725;BME280;59881;36.722;-4.462;2023-05-22T19:27:24;100520.81;;;16.28;88.81
60725;BME280;59881;36.722;-4.462;2023-05-22T19:29:50;100509.34;;;16.27;88.91
60725;BME280;59881;36.722;-4.462;2023-05-22T19:32:15;100317.66;;;15.36;89.15
60725;BME280;59881;36.722;-4.462;2023-05-22T19:34:41;100468.34;;;16.20;89.31
60725;BME280;59881;36.722;-4.462;2023-05-22T19:37:07;100446.91;;;15.84;89.49
60725;BME280;59881;36.722;-4.462;2023-05-22T19:39:32;100078.53;;;13.67;89.44
60725;BME280;59881;36.722;-4.462;2023-05-22T19:41:58;100472.19;;;16.08;90.11
60725;BME280;59881;36.722;-4.462;2023-05-22T19:44:23;100410.81;;;15.62;90.35
60725;BME280;59881;36.722;-4.462;2023-05-22T19:46:49;100081.72;;;13.61;90.36
60725;BME280;59881;36.722;-4.462;2023-05-22T19:49:15;100456.25;;;15.88;90.94
